Nearby METAR Reports

 

KLOT - Romeoville/Chi, Illinois, USA
Distance from station: N 3mi, 5km
Updated: Sun, 20-Aug-2017 11:15pm CDT
Nearby thunderstorm, Overcast
Nearby thunderstorm, Overcast
 Wind from SE
Wind: SE 8 mph , 13 km/h
Temperature: 77°F , 25°C
Dew Point: 66°F , 19°C
Humidity: 69%
Barometer: 30.03 inHg , 1016.9 hPa
Summary: Nearby Thunderstorm
Clouds: Overcast
Visibility: 10 miles , 16 km
Cloud details: Mostly cloudy 6000 ft
Mostly cloudy 6500 ft
Overcast 8000 ft
2017/08/21 04:15 KLOT 210415Z AUTO 14007KT 10SM VCTS BKN060 BKN065 OVC080 25/19 A3003 RMK AO2 LTG DSNT ALQS T02460193
KJOT - Joliet, Illinois, USA
Distance from station: WSW 5mi, 7km
Updated: Sun, 20-Aug-2017 11:15pm CDT
Nearby thunderstorm, Overcast
Nearby thunderstorm, Overcast
 Wind from SE
Wind: SE 5 mph , 7 km/h
Temperature: 79°F , 26°C
Dew Point: 70°F , 21°C
Humidity: 74%
Barometer: 30.03 inHg , 1016.9 hPa
Summary: Nearby Thunderstorm
Clouds: Overcast
Visibility: 10 miles , 16 km
Cloud details: Partly cloudy 5000 ft
Mostly cloudy 7000 ft
Overcast 10000 ft
2017/08/21 04:15 KJOT 210415Z AUTO 14004KT 10SM VCTS SCT050 BKN070 OVC100 26/21 A3003 RMK AO2 LTG DSNT ALQS T02560213
 
KC09 - Morris-Washburn, Illinois, USA
Distance from station: WSW 18mi, 29km
Updated: Sun, 20-Aug-2017 11:15pm CDT
Nearby thunderstorm, Overcast
Nearby thunderstorm, Overcast
 Wind from S
Wind: S 10 mph , 17 km/h
Temperature: 75°F , 24°C
Dew Point: 70°F , 21°C
Humidity: 83%
Barometer: 30.00 inHg , 1015.9 hPa
Summary: Nearby Thunderstorm
Clouds: Overcast
Visibility: 10 miles , 16 km
Cloud details: Partly cloudy 4200 ft
Partly cloudy 5000 ft
Overcast 10000 ft
2017/08/21 04:15 KC09 210415Z AUTO 17009KT 10SM VCTS SCT042 SCT050 OVC100 24/21 A3000 RMK AO2 LTG DSNT NW THRU SE T02430206
KARR - Chicago/Aurora, Illinois, USA
Distance from station: NW 24mi, 39km
Updated: Sun, 20-Aug-2017 11:12pm CDT
Thunderstorm, Overcast
Thunderstorm, Overcast
 Wind from E
Wind: E 24 mph , 39 km/h, Gust: 29 mph , 46 km/h
Temperature: 72°F , 22°C
Dew Point: 68°F , 20°C
Humidity: 88%
Barometer: 30.05 inHg , 1017.6 hPa
Summary: Thunderstorm
Clouds: Overcast
Visibility: 10 miles , 16 km
Cloud details: Partly cloudy 1200 ft
Mostly cloudy 4600 ft
Overcast 6000 ft
2017/08/21 04:12 KARR 210412Z AUTO 10021G25KT 10SM TS SCT012 BKN046 OVC060 22/20 A3005 RMK AO2 PK WND 10032/0359 WSHFT 0339 LTG DSNT ALQDS RAE06 P0000 T02170200 $
 
KMDW - Chicago, Illinois, USA
Distance from station: NE 25mi, 39km
Updated: Sun, 20-Aug-2017 10:53pm CDT
Overcast
Overcast
 Wind from SE
Wind: SE 7 mph , 11 km/h
Temperature: 81°F , 27°C
Heat Index: 85°F , 29°C
Dew Point: 70°F , 21°C
Humidity: 70%
Barometer: 30.03 inHg , 1016.9 hPa
Clouds: Overcast
Visibility: 10 miles , 16 km
Cloud details: Few Clouds 9000 ft
Mostly cloudy 10000 ft
Overcast 15000 ft
2017/08/21 03:53 KMDW 210353Z 13006KT 10SM FEW090 BKN100 OVC150 27/21 A3003 RMK AO2 LTG DSNT W SLP156 OCNL LTGICCG DSNT W CB DSNT W T02720206
KDPA - Chicago/Dupage, Illinois, USA
Distance from station: NNW 26mi, 42km
Updated: Sun, 20-Aug-2017 11:13pm CDT
Thunderstorm rain, Mist, Overcast
Thunderstorm rain, Mist, Overcast
 Wind from S
Wind: S 8 mph , 13 km/h
Temperature: 73°F , 23°C
Dew Point: 72°F , 22°C
Humidity: 94%
Barometer: 30.05 inHg , 1017.6 hPa
Summary: Thunderstorm rain, Mist
Clouds: Overcast
Visibility: 1 3/4 miles , 5 km
Cloud details: Few Clouds 4000 ft
Mostly cloudy 5500 ft
Overcast 11000 ft
2017/08/21 04:13 KDPA 210413Z 17007KT 1 3/4SM TSRA BR FEW040 BKN055 OVC110 23/22 A3005 RMK AO2 LTG DSNT S AND SW RAB0356 P0008 T02280217
 
KIGQ - Chicago/Lansing, Illinois, USA
Distance from station: E 30mi, 48km
Updated: Sun, 20-Aug-2017 11:15pm CDT
Mostly cloudy
Mostly cloudy
 Wind from ESE
Wind: ESE 5 mph , 7 km/h
Temperature: 75°F , 24°C
Dew Point: 68°F , 20°C
Humidity: 78%
Barometer: 30.03 inHg , 1016.9 hPa
Clouds: Mostly cloudy
Visibility: 10 miles , 16 km
Cloud details: Mostly cloudy 9000 ft
2017/08/21 04:15 KIGQ 210415Z AUTO 11004KT 10SM BKN090 24/20 A3003 RMK AO2 LTG DSNT S THRU NW T02420196
KORD - Chicago O'hare, Illinois, USA
Distance from station: NNE 31mi, 50km
Updated: Sun, 20-Aug-2017 10:51pm CDT
Mostly cloudy
Mostly cloudy
 Wind from ESE
Wind: ESE 6 mph , 9 km/h
Temperature: 77°F , 25°C
Dew Point: 70°F , 21°C
Humidity: 79%
Barometer: 30.03 inHg , 1016.9 hPa
Clouds: Mostly cloudy
Visibility: 10 miles , 16 km
Cloud details: Few Clouds 4000 ft
Partly cloudy 9000 ft
Mostly cloudy 10000 ft
Mostly cloudy 15000 ft
2017/08/21 03:51 KORD 210351Z 11005KT 10SM FEW040 SCT090 BKN100 BKN150 25/21 A3003 RMK AO2 LTG DSNT SW AND W SLP163 OCNL LTGIC DSNT W-NW CB DSNT N-NW MOV E T02500206
 
KGYY - Gary Regional, Indiana, USA
Distance from station: E 36mi, 58km
Updated: Sun, 20-Aug-2017 11:15pm CDT
Partly cloudy
Partly cloudy
 Wind from SE
Wind: SE 3 mph , 6 km/h
Temperature: 79°F , 26°C
Dew Point: 68°F , 20°C
Humidity: 70%
Barometer: 30.04 inHg , 1017.3 hPa
Clouds: Partly cloudy
Visibility: 10 miles , 16 km
Cloud details: Partly cloudy 10000 ft
2017/08/21 04:15 KGYY 210415Z AUTO 13003KT 10SM SCT100 26/20 A3004 RMK AO2 T02550200
KIKK - Kankakee, Illinois, USA
Distance from station: SSE 36mi, 58km
Updated: Sun, 20-Aug-2017 10:55pm CDT

 Wind from S
Wind: S 12 mph , 19 km/h
Visibility: 7 miles , 11 km
2017/08/21 03:55 KIKK 210355Z AUTO 19010KT 7SM +VCTSRA SCT026 SCT070 BKN080 23/20 A3006 RMK AO2 LTG DSNT SE THRU SW P0001
 
KDKB - De Kalb, Illinois, USA
Distance from station: NW 40mi, 65km
Updated: Sun, 20-Aug-2017 11:15pm CDT
Mostly cloudy
Mostly cloudy
 Wind from SE
Wind: SE 12 mph , 19 km/h, Gust: 17 mph , 28 km/h
Temperature: 72°F , 22°C
Dew Point: 70°F , 21°C
Humidity: 94%
Barometer: 30.05 inHg , 1017.6 hPa
Clouds: Mostly cloudy
Visibility: 10 miles , 16 km
Cloud details: Mostly cloudy 3900 ft
Mostly cloudy 5000 ft
Mostly cloudy 9000 ft
2017/08/21 04:15 KDKB 210415Z AUTO 13010G15KT 10SM BKN039 BKN050 BKN090 22/21 A3005 RMK AO2 LTG DSNT E AND SE T02200205
KPWK - Palwaukee, Illinois, USA
Distance from station: NNE 41mi, 65km
Updated: Sun, 20-Aug-2017 10:52pm CDT
Overcast
Overcast
 Wind from calm
Wind: Calm
Temperature: 75°F , 24°C
Dew Point: 73°F , 23°C
Humidity: 94%
Barometer: 30.04 inHg , 1017.3 hPa
Clouds: Overcast
Visibility: 10 miles , 16 km
Cloud details: Overcast 9500 ft
2017/08/21 03:52 KPWK 210352Z AUTO 00000KT 10SM OVC095 24/23 A3004 RMK AO2 LTG DSNT SW SLP167 T02440228